Time;durP1;ratioP1;P1;durP2;ratioP2;P2;SDS_P1;SDS_P2;PMS_P1;PMS_P2;Temp;Humidity;BMP_temperature;BMP_pressure;BME280_temperature;BME280_humidity;BME280_pressure;Samples;Min_cycle;Max_cycle;Signal;HPM_P1;HPM_P2
2022/07/05 00:02:09;;;;;;;;;;;;;;;28.13;28.67;101329.78;4418177;32;19992;-67
2022/07/05 00:04:35;;;;;;;;;;;;;;;28.51;28.11;101329.25;4416745;32;19957;-67
2022/07/05 00:07:31;;;;;;;;;;;;;;;28.54;28.17;101327.34;4419053;32;19975;-67
2022/07/05 00:09:48;;;;;;;;;;;;;;;28.56;28.24;101333.38;4416870;32;20030;-67
2022/07/05 00:12:14;;;;;;;;;;;;;;;28.61;28.19;101333.28;4421978;32;20390;-67
2022/07/05 00:14:40;;;;;;;;;;;;;;;28.82;27.99;101339.25;4421370;32;19997;-67
2022/07/05 00:17:06;;;;;;;;;;;;;;;28.74;28.08;101342.03;4420555;32;19953;-67
2022/07/05 00:19:31;;;;;;;;;;;;;;;28.62;28.23;101339.84;4419178;32;20013;-67
2022/07/05 00:21:57;;;;;;;;;;;;;;;28.92;27.85;101340.41;4422308;32;19992;-67
2022/07/05 00:24:24;;;;;;;;;;;;;;;29.28;27.55;101335.84;4417075;32;20049;-67
2022/07/05 00:26:49;;;;;;;;;;;;;;;29.26;27.21;101329.81;4419929;32;20001;-67
2022/07/05 00:29:15;;;;;;;;;;;;;;;29.13;27.73;101331.91;4422778;32;19949;-67
2022/07/05 00:31:42;;;;;;;;;;;;;;;28.80;28.27;101319.53;4417762;32;20016;-67
2022/07/05 00:34:07;;;;;;;;;;;;;;;28.68;28.49;101326.84;4418492;32;19941;-67
2022/07/05 00:36:32;;;;;;;;;;;;;;;28.97;28.06;101322.91;4418415;32;20017;-67
2022/07/05 00:39:00;;;;;;;;;;;;;;;28.51;28.81;101308.19;4422267;32;20358;-67
2022/07/05 00:41:26;;;;;;;;;;;;;;;28.55;28.71;101318.13;4421541;32;21106;-67
2022/07/05 00:43:53;;;;;;;;;;;;;;;28.64;28.59;101317.72;4419419;32;20354;-67
2022/07/05 00:46:19;;;;;;;;;;;;;;;28.76;28.68;101327.00;4421603;32;19989;-67
2022/07/05 00:48:44;;;;;;;;;;;;;;;29.01;28.33;101326.28;4418703;32;19995;-67
2022/07/05 00:51:10;;;;;;;;;;;;;;;29.05;28.39;101331.00;4421691;32;20016;-67
2022/07/05 00:53:35;;;;;;;;;;;;;;;28.80;28.42;101321.66;4419557;32;19997;-67
2022/07/05 00:56:01;;;;;;;;;;;;;;;29.13;28.23;101323.19;4419375;32;20112;-67
2022/07/05 00:58:28;;;;;;;;;;;;;;;29.32;27.98;101321.78;4419951;32;20056;-67
2022/07/05 01:00:53;;;;;;;;;;;;;;;29.33;27.99;101323.38;4421480;32;20047;-67
2022/07/05 01:03:19;;;;;;;;;;;;;;;29.31;27.89;101319.44;4419985;32;20433;-67
2022/07/05 01:05:44;;;;;;;;;;;;;;;29.11;28.14;101323.00;4419740;32;20010;-67
2022/07/05 01:08:12;;;;;;;;;;;;;;;29.36;27.87;101321.47;4419962;32;19972;-67
2022/07/05 01:10:40;;;;;;;;;;;;;;;29.30;27.87;101321.59;4421272;32;19991;-67
2022/07/05 01:13:11;;;;;;;;;;;;;;;29.22;28.01;101334.38;4419507;32;19983;-67
2022/07/05 01:15:42;;;;;;;;;;;;;;;28.97;28.23;101334.50;4419892;32;20016;-67
2022/07/05 01:18:08;;;;;;;;;;;;;;;29.00;28.12;101329.75;4420081;32;19972;-67
2022/07/05 01:20:35;;;;;;;;;;;;;;;29.39;27.50;101326.91;4420655;32;20005;-67
2022/07/05 01:23:02;;;;;;;;;;;;;;;29.17;27.91;101326.56;4420548;32;19972;-67
2022/07/05 01:25:30;;;;;;;;;;;;;;;29.12;27.93;101327.44;4420662;32;19963;-67
2022/07/05 01:27:56;;;;;;;;;;;;;;;29.03;27.92;101325.75;4418691;32;20064;-67
2022/07/05 01:30:22;;;;;;;;;;;;;;;28.97;27.92;101331.59;4419414;32;20000;-67
2022/07/05 01:32:47;;;;;;;;;;;;;;;28.81;28.18;101331.91;4417601;32;20007;-67
2022/07/05 01:35:14;;;;;;;;;;;;;;;28.78;28.06;101325.09;4419585;32;20391;-67
2022/07/05 01:37:39;;;;;;;;;;;;;;;28.59;28.17;101329.38;4418720;32;20015;-67
2022/07/05 01:40:05;;;;;;;;;;;;;;;28.52;28.23;101318.41;4419970;32;20468;-67
2022/07/05 01:42:31;;;;;;;;;;;;;;;28.88;27.75;101326.25;4419568;32;20082;-67
2022/07/05 01:44:56;;;;;;;;;;;;;;;28.30;28.40;101316.62;4417518;32;20000;-67
2022/07/05 01:47:22;;;;;;;;;;;;;;;28.90;27.50;101322.81;4418433;32;20032;-67
2022/07/05 01:49:49;;;;;;;;;;;;;;;28.87;27.66;101321.78;4419162;32;20476;-67
2022/07/05 01:52:16;;;;;;;;;;;;;;;28.71;27.47;101325.75;4414291;32;19953;-67
2022/07/05 01:54:43;;;;;;;;;;;;;;;27.78;28.87;101318.37;4418220;32;20024;-67
2022/07/05 01:57:08;;;;;;;;;;;;;;;28.77;27.60;101326.44;4420322;32;19980;-67
2022/07/05 01:59:35;;;;;;;;;;;;;;;28.72;27.70;101327.31;4418256;32;19960;-67
2022/07/05 02:02:01;;;;;;;;;;;;;;;27.99;28.37;101322.34;4421337;32;20000;-67
2022/07/05 02:04:27;;;;;;;;;;;;;;;28.33;28.10;101323.44;4418081;32;20047;-67
2022/07/05 02:06:53;;;;;;;;;;;;;;;28.32;27.94;101324.78;4416778;32;20045;-67
2022/07/05 02:09:19;;;;;;;;;;;;;;;28.08;28.26;101316.97;4418568;32;19964;-67
2022/07/05 02:11:44;;;;;;;;;;;;;;;27.44;29.09;101320.88;4418667;32;19953;-67
2022/07/05 02:14:11;;;;;;;;;;;;;;;28.30;27.94;101318.72;4416873;32;20004;-67
2022/07/05 02:16:38;;;;;;;;;;;;;;;28.00;28.25;101316.00;4418631;32;19961;-67
2022/07/05 02:19:04;;;;;;;;;;;;;;;27.69;28.49;101322.44;4417898;32;20433;-67
2022/07/05 02:21:29;;;;;;;;;;;;;;;28.14;27.68;101320.56;4418072;32;19957;-67
2022/07/05 02:23:55;;;;;;;;;;;;;;;28.11;27.63;101317.97;4417328;32;20028;-67
2022/07/05 02:26:20;;;;;;;;;;;;;;;28.36;27.22;101307.84;4418209;32;19964;-67
2022/07/05 02:28:46;;;;;;;;;;;;;;;28.06;27.71;101307.25;4418002;32;20431;-67
2022/07/05 02:31:11;;;;;;;;;;;;;;;28.08;27.53;101307.47;4419991;32;20346;-67
2022/07/05 02:33:37;;;;;;;;;;;;;;;28.24;27.37;101315.94;4417300;32;20031;-67
2022/07/05 02:36:07;;;;;;;;;;;;;;;28.28;27.18;101316.38;4418282;32;19997;-67
2022/07/05 02:38:33;;;;;;;;;;;;;;;28.40;26.89;101317.00;4418205;32;19964;-67
2022/07/05 02:40:58;;;;;;;;;;;;;;;28.32;26.89;101324.78;4416042;32;20000;-67
2022/07/05 02:43:24;;;;;;;;;;;;;;;28.10;27.10;101322.19;4416678;32;20000;-67
2022/07/05 02:45:49;;;;;;;;;;;;;;;28.05;27.26;101320.94;4417059;32;20582;-67
2022/07/05 02:48:15;;;;;;;;;;;;;;;28.19;27.04;101331.25;4415761;32;20005;-67
2022/07/05 02:50:40;;;;;;;;;;;;;;;28.11;27.14;101315.06;4417869;32;19961;-67
2022/07/05 02:53:05;;;;;;;;;;;;;;;27.88;27.41;101322.47;4418016;32;19996;-67
2022/07/05 02:55:31;;;;;;;;;;;;;;;27.80;27.43;101325.19;4418288;32;20007;-67
2022/07/05 02:57:57;;;;;;;;;;;;;;;26.82;28.61;101325.66;4418323;32;19961;-66
2022/07/05 03:00:23;;;;;;;;;;;;;;;27.83;27.40;101320.41;4418709;32;20001;-66
2022/07/05 03:02:48;;;;;;;;;;;;;;;27.74;27.62;101315.81;4414592;32;19972;-66
2022/07/05 03:05:14;;;;;;;;;;;;;;;27.90;27.45;101326.41;4408400;32;20406;-67
2022/07/05 03:07:40;;;;;;;;;;;;;;;28.03;27.23;101323.59;4418707;32;20005;-66
2022/07/05 03:10:05;;;;;;;;;;;;;;;28.20;26.94;101326.25;4418899;32;21153;-66
2022/07/05 03:12:31;;;;;;;;;;;;;;;28.10;26.98;101328.75;4417753;32;19993;-66
2022/07/05 03:14:56;;;;;;;;;;;;;;;28.30;26.79;101336.09;4418080;32;20052;-66
2022/07/05 03:17:22;;;;;;;;;;;;;;;28.45;26.53;101336.41;4416448;32;20394;-66
2022/07/05 03:19:48;;;;;;;;;;;;;;;28.57;26.46;101341.53;4420031;32;20037;-66
2022/07/05 03:22:14;;;;;;;;;;;;;;;28.60;26.30;101337.50;4418745;32;20419;-66
2022/07/05 03:24:39;;;;;;;;;;;;;;;28.71;26.31;101343.13;4418419;32;20526;-66
2022/07/05 03:27:04;;;;;;;;;;;;;;;28.67;26.24;101344.78;4420184;32;19970;-66
2022/07/05 03:29:30;;;;;;;;;;;;;;;28.69;26.19;101342.88;4419197;32;19996;-66
2022/07/05 03:31:55;;;;;;;;;;;;;;;28.89;25.94;101344.41;4416818;32;20034;-66
2022/07/05 03:34:21;;;;;;;;;;;;;;;28.88;25.85;101352.34;4416645;32;20269;-66
2022/07/05 03:36:47;;;;;;;;;;;;;;;28.93;25.87;101353.59;4415745;32;20347;-66
2022/07/05 03:39:13;;;;;;;;;;;;;;;28.85;25.93;101359.25;4419265;32;19957;-66
2022/07/05 03:41:38;;;;;;;;;;;;;;;29.02;25.80;101351.03;4420598;32;19975;-66
2022/07/05 03:44:04;;;;;;;;;;;;;;;28.97;25.64;101354.78;4417820;32;19966;-66
2022/07/05 03:46:31;;;;;;;;;;;;;;;28.99;25.78;101351.34;4407131;32;20020;-67
2022/07/05 03:48:56;;;;;;;;;;;;;;;28.87;26.12;101350.75;4421057;32;20005;-67
2022/07/05 03:51:22;;;;;;;;;;;;;;;28.49;26.96;101351.38;4422179;32;21040;-66
2022/07/05 03:53:47;;;;;;;;;;;;;;;29.08;26.00;101358.87;4420376;32;19962;-66
2022/07/05 03:56:14;;;;;;;;;;;;;;;29.37;25.57;101358.59;4421129;32;20415;-67
2022/07/05 03:58:39;;;;;;;;;;;;;;;29.10;25.99;101359.09;4422819;32;20361;-66
2022/07/05 04:01:05;;;;;;;;;;;;;;;29.10;25.92;101364.91;4419969;32;20007;-66
2022/07/05 04:03:31;;;;;;;;;;;;;;;29.12;25.91;101362.22;4417959;32;19957;-66
2022/07/05 04:05:58;;;;;;;;;;;;;;;29.49;25.45;101370.78;4421590;32;20041;-66
2022/07/05 04:08:25;;;;;;;;;;;;;;;29.41;25.60;101369.84;4419599;32;19965;-66
2022/07/05 04:10:52;;;;;;;;;;;;;;;29.54;25.40;101370.66;4420995;32;20001;-66
2022/07/05 04:13:18;;;;;;;;;;;;;;;29.75;25.11;101371.59;4418912;32;19953;-66
2022/07/05 04:15:43;;;;;;;;;;;;;;;29.58;25.34;101365.31;4420706;32;19986;-66
2022/07/05 04:18:09;;;;;;;;;;;;;;;29.71;25.20;101374.06;4416974;32;19945;-66
2022/07/05 04:20:35;;;;;;;;;;;;;;;29.55;25.49;101365.66;4421097;32;19996;-66
2022/07/05 04:23:00;;;;;;;;;;;;;;;29.53;25.60;101359.63;4420844;32;20027;-66
2022/07/05 04:25:26;;;;;;;;;;;;;;;29.18;26.03;101368.72;4421154;32;19964;-66
2022/07/05 04:27:52;;;;;;;;;;;;;;;29.14;26.20;101371.16;4418819;32;19992;-66
2022/07/05 04:30:19;;;;;;;;;;;;;;;29.20;26.18;101368.94;4422783;32;20421;-66
2022/07/05 04:32:45;;;;;;;;;;;;;;;29.36;26.01;101371.53;4420100;32;20441;-66
2022/07/05 04:35:11;;;;;;;;;;;;;;;29.15;26.23;101370.62;4419545;32;20000;-66
2022/07/05 04:37:37;;;;;;;;;;;;;;;29.03;26.44;101367.06;4418225;32;20362;-66
2022/07/05 04:40:03;;;;;;;;;;;;;;;28.82;26.70;101369.03;4420562;32;20008;-66
2022/07/05 04:42:29;;;;;;;;;;;;;;;29.14;26.44;101369.03;4416930;32;20039;-66
2022/07/05 04:44:54;;;;;;;;;;;;;;;29.09;26.39;101369.94;4420893;32;19953;-66
2022/07/05 04:47:20;;;;;;;;;;;;;;;29.37;26.22;101378.91;4420979;32;19964;-66
2022/07/05 04:49:45;;;;;;;;;;;;;;;29.43;26.11;101379.59;4419542;32;20355;-66
2022/07/05 04:52:11;;;;;;;;;;;;;;;29.56;25.86;101385.41;4418612;32;19996;-66
2022/07/05 04:54:37;;;;;;;;;;;;;;;29.70;25.70;101389.87;4417412;32;20004;-66
2022/07/05 04:57:02;;;;;;;;;;;;;;;29.87;25.64;101392.47;4419544;32;20354;-66
2022/07/05 04:59:28;;;;;;;;;;;;;;;30.11;25.29;101390.13;4419709;32;19968;-66
2022/07/05 05:01:53;;;;;;;;;;;;;;;30.35;24.93;101397.81;4418666;32;20371;-66
2022/07/05 05:04:19;;;;;;;;;;;;;;;30.51;24.73;101394.53;4417836;32;20376;-66
2022/07/05 05:06:44;;;;;;;;;;;;;;;30.55;24.72;101397.88;4420766;32;20019;-66
2022/07/05 05:09:10;;;;;;;;;;;;;;;30.64;24.43;101408.22;4415741;32;20078;-66
2022/07/05 05:11:35;;;;;;;;;;;;;;;30.75;24.32;101397.16;4418374;32;20008;-66
2022/07/05 05:14:01;;;;;;;;;;;;;;;30.44;24.46;101408.97;4419279;32;19999;-66
2022/07/05 05:16:26;;;;;;;;;;;;;;;30.48;24.48;101400.69;4418799;32;20043;-66
2022/07/05 05:18:52;;;;;;;;;;;;;;;30.51;24.56;101402.47;4417816;32;20336;-66
2022/07/05 05:21:17;;;;;;;;;;;;;;;30.50;24.57;101409.63;4420459;32;19962;-66
2022/07/05 05:23:44;;;;;;;;;;;;;;;30.42;24.64;101409.53;4418991;32;20042;-66
2022/07/05 05:26:09;;;;;;;;;;;;;;;30.47;24.64;101419.47;4419698;32;19965;-66
2022/07/05 05:28:34;;;;;;;;;;;;;;;30.22;24.88;101423.97;4421748;32;20003;-66
2022/07/05 05:31:00;;;;;;;;;;;;;;;30.36;24.78;101426.28;4420990;32;20005;-66
2022/07/05 05:33:26;;;;;;;;;;;;;;;30.55;24.64;101424.00;4416565;32;19957;-66
2022/07/05 05:35:52;;;;;;;;;;;;;;;30.88;24.27;101425.38;4420006;32;20272;-66
2022/07/05 05:38:18;;;;;;;;;;;;;;;30.94;24.23;101428.94;4419670;32;19972;-66
2022/07/05 05:40:44;;;;;;;;;;;;;;;31.16;23.84;101425.47;4419513;32;19953;-66
2022/07/05 05:43:09;;;;;;;;;;;;;;;31.25;23.84;101435.84;4418132;32;20302;-66
2022/07/05 05:45:35;;;;;;;;;;;;;;;31.18;23.88;101436.53;4420346;32;20073;-66
2022/07/05 05:48:01;;;;;;;;;;;;;;;31.26;23.88;101444.00;4407697;32;20186;-66
2022/07/05 05:50:28;;;;;;;;;;;;;;;31.06;23.94;101447.69;4418900;32;20411;-66
2022/07/05 05:52:53;;;;;;;;;;;;;;;31.24;23.89;101449.63;4418404;32;19975;-66
2022/07/05 05:55:19;;;;;;;;;;;;;;;31.13;24.07;101449.88;4415896;32;20608;-66
2022/07/05 05:57:45;;;;;;;;;;;;;;;31.14;24.01;101450.66;4421085;32;20197;-66
2022/07/05 06:00:11;;;;;;;;;;;;;;;30.25;24.71;101443.94;4418685;32;20393;-66
2022/07/05 06:02:37;;;;;;;;;;;;;;;29.80;25.01;101449.06;4420427;32;20029;-66
2022/07/05 06:05:03;;;;;;;;;;;;;;;29.35;25.46;101445.38;4418285;32;20315;-66
2022/07/05 06:07:28;;;;;;;;;;;;;;;29.86;24.89;101452.66;4407546;32;20008;-66
2022/07/05 06:09:54;;;;;;;;;;;;;;;29.16;25.57;101446.75;4418357;32;20000;-66
2022/07/05 06:12:19;;;;;;;;;;;;;;;29.86;24.88;101452.66;4418719;32;19988;-66
2022/07/05 06:14:44;;;;;;;;;;;;;;;30.02;24.64;101462.34;4418859;32;20004;-66
2022/07/05 06:17:10;;;;;;;;;;;;;;;30.09;24.24;101467.47;4420293;32;20026;-66
2022/07/05 06:19:36;;;;;;;;;;;;;;;29.80;24.71;101462.78;4416607;32;19982;-66
2022/07/05 06:22:01;;;;;;;;;;;;;;;30.09;24.28;101462.47;4417776;32;19980;-66
2022/07/05 06:24:27;;;;;;;;;;;;;;;29.74;24.56;101462.09;4417212;32;19968;-66
2022/07/05 06:26:53;;;;;;;;;;;;;;;29.47;24.49;101451.75;4412036;32;20283;-66
2022/07/05 06:29:18;;;;;;;;;;;;;;;28.60;25.02;101450.47;4405552;32;19980;-66
2022/07/05 06:31:44;;;;;;;;;;;;;;;29.49;24.21;101457.78;4415154;32;20448;-66
2022/07/05 06:34:10;;;;;;;;;;;;;;;29.46;24.35;101448.09;4410770;32;20020;-67
2022/07/05 06:36:35;;;;;;;;;;;;;;;29.15;24.63;101453.87;4415944;32;19993;-67
2022/07/05 06:39:01;;;;;;;;;;;;;;;29.74;24.08;101465.00;4404066;32;19961;-67
2022/07/05 06:41:26;;;;;;;;;;;;;;;29.14;24.79;101458.91;4409690;32;19993;-66
2022/07/05 06:43:52;;;;;;;;;;;;;;;29.32;24.80;101460.22;4409386;32;20402;-67
2022/07/05 06:46:17;;;;;;;;;;;;;;;29.54;24.70;101478.00;4404327;32;20004;-67
2022/07/05 06:48:43;;;;;;;;;;;;;;;29.47;24.74;101469.16;4406258;32;20355;-67
2022/07/05 06:51:08;;;;;;;;;;;;;;;30.36;23.75;101475.66;4408713;32;20384;-66
2022/07/05 06:53:34;;;;;;;;;;;;;;;30.60;23.22;101481.22;4395907;32;20039;-67
2022/07/05 06:56:00;;;;;;;;;;;;;;;30.98;22.93;101483.84;4403823;32;20000;-67
2022/07/05 06:58:25;;;;;;;;;;;;;;;30.83;22.67;101470.69;4403841;32;20316;-67
2022/07/05 07:00:51;;;;;;;;;;;;;;;30.05;23.78;101470.75;4404234;32;20007;-67
2022/07/05 07:03:17;;;;;;;;;;;;;;;30.76;23.11;101477.19;4401875;32;20817;-67
2022/07/05 07:05:42;;;;;;;;;;;;;;;30.24;23.35;101488.06;4403535;32;21160;-67
2022/07/05 07:10:53;;;;;;;;;;;;;;;31.26;22.38;101489.75;4404050;32;20413;-67
2022/07/05 07:13:19;;;;;;;;;;;;;;;31.35;22.01;101487.16;4405120;32;20000;-67
2022/07/05 07:15:46;;;;;;;;;;;;;;;30.95;22.41;101484.97;4401849;32;20019;-67
2022/07/05 07:18:12;;;;;;;;;;;;;;;31.47;22.13;101488.44;4399794;32;20013;-67
2022/07/05 07:20:37;;;;;;;;;;;;;;;32.14;21.47;101484.53;4398623;32;20355;-67
2022/07/05 07:23:03;;;;;;;;;;;;;;;32.19;21.52;101483.63;4403969;32;20623;-67
2022/07/05 07:25:29;;;;;;;;;;;;;;;32.60;21.10;101498.03;4407556;32;19997;-68
2022/07/05 07:27:55;;;;;;;;;;;;;;;32.12;21.88;101493.84;4406113;32;20037;-67
2022/07/05 07:30:22;;;;;;;;;;;;;;;32.33;21.78;101490.87;4401876;32;20139;-67
2022/07/05 07:32:50;;;;;;;;;;;;;;;32.90;21.30;101494.50;4405754;32;19971;-67
2022/07/05 07:35:16;;;;;;;;;;;;;;;32.28;21.75;101515.91;4408846;32;19950;-67
2022/07/05 07:37:41;;;;;;;;;;;;;;;32.10;22.02;101504.53;4405129;32;19993;-68
2022/07/05 07:40:08;;;;;;;;;;;;;;;32.63;21.57;101504.87;4406529;32;20615;-67
2022/07/05 07:42:34;;;;;;;;;;;;;;;32.45;21.83;101504.59;4406255;32;20024;-68
2022/07/05 07:45:03;;;;;;;;;;;;;;;33.21;21.08;101514.44;4405486;32;20587;-68
2022/07/05 07:47:29;;;;;;;;;;;;;;;33.08;21.37;101510.91;4402669;32;19967;-68
2022/07/05 07:49:55;;;;;;;;;;;;;;;33.31;21.04;101518.34;4403996;32;20007;-68
2022/07/05 07:52:20;;;;;;;;;;;;;;;33.48;20.90;101515.69;4408281;32;20005;-70
2022/07/05 07:54:46;;;;;;;;;;;;;;;33.20;21.00;101517.94;4404683;32;19997;-69
2022/07/05 07:57:12;;;;;;;;;;;;;;;33.16;21.23;101518.31;4402893;32;20406;-69
2022/07/05 07:59:37;;;;;;;;;;;;;;;33.42;20.87;101518.03;4401896;32;20398;-69
2022/07/05 08:02:03;;;;;;;;;;;;;;;32.52;21.86;101523.47;4403289;32;21283;-69
2022/07/05 08:04:29;;;;;;;;;;;;;;;32.13;22.05;101535.41;4402993;32;20008;-68
2022/07/05 08:06:54;;;;;;;;;;;;;;;31.49;22.89;101538.13;4406041;32;20004;-67
2022/07/05 08:09:22;;;;;;;;;;;;;;;31.55;22.95;101527.12;4403501;32;19985;-68
2022/07/05 08:11:48;;;;;;;;;;;;;;;31.93;22.70;101531.19;4408933;32;20677;-67
2022/07/05 08:14:14;;;;;;;;;;;;;;;32.11;22.55;101521.44;4406909;32;19962;-67
2022/07/05 08:16:40;;;;;;;;;;;;;;;31.61;23.34;101529.91;4410235;32;19965;-67
2022/07/05 08:21:51;;;;;;;;;;;;;;;32.29;22.53;101520.38;4408103;32;20007;-67
2022/07/05 08:24:17;;;;;;;;;;;;;;;33.26;21.56;101515.63;4410558;32;20420;-67
2022/07/05 08:26:43;;;;;;;;;;;;;;;33.59;21.18;101520.38;4412259;32;20037;-68
2022/07/05 08:29:09;;;;;;;;;;;;;;;33.73;21.20;101525.44;4409463;32;20432;-68
2022/07/05 08:31:38;;;;;;;;;;;;;;;33.58;21.23;101516.69;4407994;32;19961;-68
2022/07/05 08:34:03;;;;;;;;;;;;;;;32.98;22.00;101521.56;4407867;32;21163;-67
2022/07/05 08:36:29;;;;;;;;;;;;;;;32.80;22.17;101534.28;4407463;32;20017;-69
2022/07/05 08:38:55;;;;;;;;;;;;;;;32.85;22.03;101515.84;4407427;32;20394;-70
2022/07/05 08:41:21;;;;;;;;;;;;;;;32.76;22.04;101528.81;4409773;32;20425;-70
2022/07/05 08:43:48;;;;;;;;;;;;;;;33.04;21.67;101522.94;4407620;32;20011;-69
2022/07/05 08:46:14;;;;;;;;;;;;;;;33.33;21.48;101527.31;4407778;32;20035;-68
2022/07/05 08:48:43;;;;;;;;;;;;;;;32.88;21.91;101532.22;4406823;32;20021;-68
2022/07/05 08:51:10;;;;;;;;;;;;;;;33.08;21.65;101528.41;4407886;32;20009;-69
2022/07/05 08:53:36;;;;;;;;;;;;;;;33.43;21.39;101533.38;4408318;32;19997;-70
2022/07/05 08:56:02;;;;;;;;;;;;;;;33.82;21.08;101533.62;4409740;32;20023;-69
2022/07/05 08:58:28;;;;;;;;;;;;;;;33.12;22.06;101537.53;4409508;32;19997;-69
2022/07/05 09:00:53;;;;;;;;;;;;;;;32.39;23.06;101541.06;4410144;32;20342;-68
2022/07/05 09:03:25;;;;;;;;;;;;;;;32.86;22.56;101552.44;4410484;32;20001;-67
2022/07/05 09:05:54;;;;;;;;;;;;;;;33.47;21.79;101536.72;4407009;32;20001;-67
2022/07/05 09:08:21;;;;;;;;;;;;;;;34.22;21.17;101533.81;4404916;32;20386;-67
2022/07/05 09:10:46;;;;;;;;;;;;;;;33.93;21.25;101532.50;4410364;32;20383;-68
2022/07/05 09:13:12;;;;;;;;;;;;;;;33.36;21.92;101539.94;4407970;32;19963;-68
2022/07/05 09:15:38;;;;;;;;;;;;;;;33.99;21.34;101542.59;4408183;32;19968;-68
2022/07/05 09:18:04;;;;;;;;;;;;;;;33.30;21.99;101545.19;4410428;32;20017;-69
2022/07/05 09:20:29;;;;;;;;;;;;;;;33.14;22.18;101537.75;4410606;32;20050;-68
2022/07/05 09:22:55;;;;;;;;;;;;;;;33.71;21.79;101544.91;4410109;32;20046;-68
2022/07/05 09:28:02;;;;;;;;;;;;;;;33.72;21.58;101552.31;3938751;32;15865338;-68
2022/07/05 09:30:32;;;;;;;;;;;;;;;34.10;21.24;101553.91;4413307;32;19994;-68
2022/07/05 09:33:00;;;;;;;;;;;;;;;34.80;20.51;101556.09;4416694;32;20006;-67
2022/07/05 09:35:26;;;;;;;;;;;;;;;34.87;20.50;101561.19;4399031;32;19977;-67
2022/07/05 09:37:51;;;;;;;;;;;;;;;34.06;21.17;101565.22;4414265;32;20056;-67
2022/07/05 09:40:17;;;;;;;;;;;;;;;34.22;20.89;101555.06;4414383;32;19967;-67
2022/07/05 09:42:43;;;;;;;;;;;;;;;33.13;22.42;101565.37;4414367;32;20008;-67
2022/07/05 09:45:08;;;;;;;;;;;;;;;32.08;23.40;101566.25;4412537;32;20034;-67
2022/07/05 09:47:34;;;;;;;;;;;;;;;32.13;23.57;101573.28;4413495;32;20564;-67
2022/07/05 09:50:04;;;;;;;;;;;;;;;33.81;21.87;101578.03;4412521;32;20027;-67
2022/07/05 09:52:33;;;;;;;;;;;;;;;33.76;21.89;101571.00;4416056;32;20463;-67
2022/07/05 09:55:02;;;;;;;;;;;;;;;34.72;21.08;101558.31;4414094;32;20553;-67
2022/07/05 09:57:28;;;;;;;;;;;;;;;34.55;21.07;101558.13;4384891;32;19964;-67
2022/07/05 10:00:03;;;;;;;;;;;;;;;35.15;20.35;101570.41;4397209;32;20488;-70
2022/07/05 10:02:36;;;;;;;;;;;;;;;34.94;20.65;101564.06;4412895;32;20030;-69
2022/07/05 10:05:18;;;;;;;;;;;;;;;35.07;20.59;101563.06;4413840;32;20008;-68
2022/07/05 10:07:47;;;;;;;;;;;;;;;34.86;20.89;101560.41;4411718;32;20004;-68
2022/07/05 10:10:15;;;;;;;;;;;;;;;33.52;22.25;101570.75;4414193;32;20004;-69
2022/07/05 10:12:41;;;;;;;;;;;;;;;33.71;22.17;101565.34;4416084;32;20371;-68
2022/07/05 10:15:10;;;;;;;;;;;;;;;33.49;22.56;101554.41;4413462;32;20008;-70
2022/07/05 10:17:37;;;;;;;;;;;;;;;32.92;23.30;101573.44;4413681;32;20209;-66
2022/07/05 10:20:07;;;;;;;;;;;;;;;33.44;22.72;101569.97;4414731;32;20024;-70
2022/07/05 10:22:35;;;;;;;;;;;;;;;33.10;23.36;101576.03;4408748;32;19999;-68
2022/07/05 10:25:01;;;;;;;;;;;;;;;33.04;23.70;101574.69;4412141;32;20012;-69
2022/07/05 10:27:28;;;;;;;;;;;;;;;33.40;23.23;101570.34;4413141;32;19953;-69
2022/07/05 10:29:56;;;;;;;;;;;;;;;32.43;24.24;101583.03;4414637;32;20634;-68
2022/07/05 10:32:22;;;;;;;;;;;;;;;33.94;22.60;101575.72;4413162;32;21125;-70
2022/07/05 10:34:51;;;;;;;;;;;;;;;33.94;22.35;101581.56;4412434;32;20042;-69
2022/07/05 10:37:18;;;;;;;;;;;;;;;34.39;22.01;101569.09;4408732;32;20385;-68
2022/07/05 10:39:44;;;;;;;;;;;;;;;34.71;21.44;101572.13;4402035;32;20001;-68
2022/07/05 10:42:10;;;;;;;;;;;;;;;34.08;22.09;101576.31;4404039;32;20501;-68
2022/07/05 10:44:37;;;;;;;;;;;;;;;33.37;22.97;101576.59;4402435;32;19997;-68
2022/07/05 10:47:11;;;;;;;;;;;;;;;34.31;21.65;101571.22;4404014;32;20435;-68
2022/07/05 10:49:38;;;;;;;;;;;;;;;34.01;21.97;101572.00;4398590;32;19997;-68
2022/07/05 10:52:04;;;;;;;;;;;;;;;33.23;22.41;101567.16;4402920;32;20001;-68
2022/07/05 10:54:29;;;;;;;;;;;;;;;33.15;22.71;101571.41;4400743;32;20510;-68
2022/07/05 10:57:15;;;;;;;;;;;;;;;34.06;21.89;101552.75;4402742;32;20038;-67
2022/07/05 11:00:00;;;;;;;;;;;;;;;34.70;21.15;101561.81;4404827;32;19970;-68
2022/07/05 11:02:25;;;;;;;;;;;;;;;35.83;19.35;101559.09;4402100;32;20036;-68
2022/07/05 11:04:55;;;;;;;;;;;;;;;35.16;19.84;101563.22;4404109;32;20369;-68
2022/07/05 11:07:41;;;;;;;;;;;;;;;35.32;19.51;101572.69;4404033;32;19993;-68
2022/07/05 11:10:07;;;;;;;;;;;;;;;35.55;19.08;101565.34;4401790;32;19992;-68
2022/07/05 11:12:37;;;;;;;;;;;;;;;35.63;19.09;101569.00;4402503;32;19985;-68
2022/07/05 11:15:06;;;;;;;;;;;;;;;34.93;19.78;101574.22;4401793;32;19965;-68
2022/07/05 11:17:32;;;;;;;;;;;;;;;33.55;20.78;101573.31;4402167;32;20323;-68
2022/07/05 11:22:34;;;;;;;;;;;;;;;36.35;17.97;101579.81;3943722;32;15724363;-68
2022/07/05 11:25:00;;;;;;;;;;;;;;;36.35;17.97;101579.81;4427059;32;19972;-67
2022/07/05 11:27:26;;;;;;;;;;;;;;;36.86;16.94;101571.03;4428145;32;20358;-68
2022/07/05 11:29:52;;;;;;;;;;;;;;;36.17;17.58;101570.16;4422572;32;19989;-67
2022/07/05 11:34:54;;;;;;;;;;;;;;;35.76;18.54;101574.56;3942008;32;15723593;-68
2022/07/05 11:42:48;;;;;;;;;;;;;;;34.46;19.91;101567.50;3940234;32;15724313;-68
2022/07/05 11:45:13;;;;;;;;;;;;;;;34.46;19.91;101567.50;4414656;32;19993;-69
2022/07/05 11:47:39;;;;;;;;;;;;;;;34.58;19.45;101574.50;4417658;32;20752;-67
2022/07/05 11:50:05;;;;;;;;;;;;;;;35.63;18.47;101580.72;4418202;32;19993;-67
2022/07/05 11:52:32;;;;;;;;;;;;;;;35.77;17.25;101578.28;4418036;32;20437;-67
2022/07/05 11:54:59;;;;;;;;;;;;;;;35.77;17.21;101570.25;4418900;32;20433;-68
2022/07/05 11:57:25;;;;;;;;;;;;;;;35.71;17.59;101575.56;4416056;32;19977;-68
2022/07/05 11:59:51;;;;;;;;;;;;;;;36.08;17.44;101571.59;4417814;32;20023;-68
2022/07/05 12:02:18;;;;;;;;;;;;;;;36.35;17.33;101580.56;4414805;32;20914;-68
2022/07/05 12:04:47;;;;;;;;;;;;;;;35.98;17.57;101590.44;4412524;32;20006;-69
2022/07/05 12:07:23;;;;;;;;;;;;;;;35.91;17.21;101582.50;4409513;32;19966;-68
2022/07/05 12:12:43;;;;;;;;;;;;;;;35.58;17.56;101583.88;4408243;32;19989;-71
2022/07/05 12:15:17;;;;;;;;;;;;;;;36.44;16.83;101588.69;4409011;32;19988;-70
2022/07/05 12:17:44;;;;;;;;;;;;;;;36.09;17.05;101587.03;4399959;32;20013;-70
2022/07/05 12:20:11;;;;;;;;;;;;;;;36.98;16.50;101590.47;4416353;32;20051;-69
2022/07/05 12:22:38;;;;;;;;;;;;;;;36.31;17.07;101599.94;4413664;32;20653;-70
2022/07/05 12:25:04;;;;;;;;;;;;;;;36.84;16.74;101603.16;4413166;32;20323;-68
2022/07/05 12:27:31;;;;;;;;;;;;;;;36.35;17.06;101583.50;4412682;32;19996;-70
2022/07/05 12:29:56;;;;;;;;;;;;;;;37.11;16.69;101583.44;4415056;32;20406;-70
2022/07/05 12:32:22;;;;;;;;;;;;;;;37.37;16.04;101591.53;4414997;32;20021;-70
2022/07/05 12:34:48;;;;;;;;;;;;;;;38.07;15.17;101591.47;4408468;32;19993;-70
2022/07/05 12:37:21;;;;;;;;;;;;;;;37.97;15.41;101591.41;4409831;32;20050;-70
2022/07/05 12:39:48;;;;;;;;;;;;;;;38.08;15.18;101590.06;4414295;32;20387;-68
2022/07/05 12:42:32;;;;;;;;;;;;;;;38.98;14.53;101599.41;4415312;32;20001;-68
2022/07/05 12:45:14;;;;;;;;;;;;;;;39.08;14.25;101597.25;4415865;32;19997;-68
2022/07/05 12:47:55;;;;;;;;;;;;;;;40.25;13.47;101610.47;4416985;32;20000;-67
2022/07/05 12:50:22;;;;;;;;;;;;;;;40.27;13.67;101615.75;4414139;32;19993;-68
2022/07/05 12:58:53;;;;;;;;;;;;;;;39.53;13.46;101588.22;4405406;32;19989;-68
2022/07/05 13:01:27;;;;;;;;;;;;;;;38.99;14.08;101589.22;4402857;32;20009;-68